This is the latest recevied weather packets stored in our database for station/object HS2XQB-3. If no packets are shown the sender has not sent any weather packets the latest 10 day(s).
| Time | Temp. | Humidity | Pressure | Rain* | Wind** | Luminosity | Snow |
|---|---|---|---|---|---|---|---|
| 1788539017 | 33.33° C | 62% | 1005 hPa | - | - | 0 W/m² | - |
| 1788537195 | 33.33° C | 61% | 1006 hPa | - | - | 0 W/m² | - |
| 1788535373 | 33.33° C | 60% | 1006 hPa | - | - | 0 W/m² | - |
| 1788533551 | 33.89° C | 58% | 1006 hPa | - | - | 0 W/m² | - |
| 1788531729 | 33.89° C | 58% | 1005 hPa | - | - | 0 W/m² | - |
| 1788529907 | 33.89° C | 57% | 1005 hPa | - | - | 0 W/m² | - |
| 1788528085 | 34.44° C | 56% | 1005 hPa | - | - | 0 W/m² | - |
| 1788526262 | 35° C | 53% | 1004 hPa | - | - | 0 W/m² | - |
| 1788524440 | 35° C | 52% | 1004 hPa | - | - | 0 W/m² | - |
| 1788522618 | 35° C | 50% | 1004 hPa | - | - | 0 W/m² | - |
| 1788520796 | 35.56° C | 47% | 1003 hPa | - | - | 0 W/m² | - |
| 1788518975 | 36.67° C | 44% | 1003 hPa | - | - | 0 W/m² | - |
| 1788517151 | 37.78° C | 42% | 1002 hPa | - | - | 0 W/m² | - |
| 1788515329 | 38.89° C | 41% | 1002 hPa | - | - | 0 W/m² | - |
| 1788513507 | 39.44° C | 40% | 1002 hPa | - | - | 0 W/m² | - |
| 1788511685 | 40° C | 40% | 1002 hPa | - | - | 0 W/m² | - |
| 1788509863 | 40.56° C | 39% | 1002 hPa | - | - | 0 W/m² | - |
| 1788508041 | 41.11° C | 39% | 1003 hPa | - | - | 0 W/m² | - |
| 1788506219 | 41.11° C | 40% | 1003 hPa | - | - | 0 W/m² | - |
| 1788504397 | 41.11° C | 41% | 1004 hPa | - | - | 0 W/m² | - |
| 1788502575 | 40.56° C | 43% | 1004 hPa | - | - | 0 W/m² | - |
| 1788500753 | 40.56° C | 45% | 1005 hPa | - | - | 0 W/m² | - |
| 1788498931 | 40.56° C | 45% | 1005 hPa | - | - | 0 W/m² | - |
| 1788497109 | 40° C | 46% | 1006 hPa | - | - | 0 W/m² | - |
| 1788495287 | 39.44° C | 48% | 1006 hPa | - | - | 0 W/m² | - |
* Rain since midnight (hover to see other rain measurements)
** Current wind speed in m/s (hover to see current wind gust speed)